Charter Quote
Worldwide +1-877-727-2538 Call
Select Language Lang
SAFETY RELIABILITY EXPERIENCE

Cameri Airport (LIMN) - Jet Charter Services

AIRPORT INFORMATION
ICAOLIMN
IATALTT
LOCATIONCameri, Italy
FACILITY TYPEAIRPORT
Runway Length (ft) Width (ft) Surface Type Elevation (ft)
35/17 9818 94 ASP 585.60656

At Paramount Business Jets you can hire chartered private jets to and from Cameri Airport with as little as 4 hours of notice. All flights booked via Paramount Business Jets are operated by certified direct air carriers that meet and exceed the FAA part 135 and 121 protocol or a foreign equivalent safety authority. Furthermore, Paramount Business Jets subscribes to ARGUS for their third party safety checks of operators, aircraft, and crews prior each and every flight to and from Cameri Airport and worldwide.

  • Quote a trip using Cameri Airport or call us 24/7 - 365 days a year at +1-877-727-2538.
Questions? Call +1-877-727-2538

METAR Weather Data at Cameri Airport, LIMN, LTT

STATIONLIMN
OBSERVEDMon Mar 18, 17:55 UTC
NOWTue Mar 19, 04:13 UTC
AGE10:18 hr ago
WINDN at 18 mph
VISIBILITYgreater than 7 miles
CLOUDSclear skies
TEMP54°F (12°C)
DEWPT9°F (-13°C)
HUMIDITY16%
BAROMETER1015 hPa (29.97 in Hg)
METARLIMN 181755Z 36016KT CAVOK 12/M13 Q1015 RMK FEW FEW070 VIS MIN 9999 BLU

Call us on +1-877-727-2538 (24 Hours) to Hire a Private Jet or Get a Quick Quote.

Find Airports Near any Location

Processing
...